Oak Harbor, Ohio
Current Conditions -  °F | °C
As of 3:13 PM on Monday 26 Jan 2015 (Local Time) from KPCW Reporting Station
Clear Clear  
Wind Chill:   Ceiling: Unl
Heat Index: 19°   Visibility: 10mi
Dew Point: 12°   Wind: 8mph
Humidity: 74%   Direction: 10°N
Pressure: 29.88"   Gusts: NA
Location:  41.51°N, 83.15°W
Report Text: KPCW 262013Z AUTO 01007KT 10SM CLR M07/M11 A2988 RMK AO2 $
Loading
Personal Weather Stations






























Interactive Weather Map New forecast layout! Learn more

10-Day Weather Forecast

Advertisements
Track Severe Weather on mobile